Time;durP1;ratioP1;P1;durP2;ratioP2;P2;SDS_P1;SDS_P2;PMS_P1;PMS_P2;Temp;Humidity;BMP_temperature;BMP_pressure;BME280_temperature;BME280_humidity;BME280_pressure;Samples;Min_cycle;Max_cycle;Signal;HPM_P1;HPM_P2
2021/05/19 00:01:22;;;;;;;2.03;2.00;;;;;;;14.28;62.25;100778.28;6383332;27;20585;-71
2021/05/19 00:04:27;;;;;;;6.07;2.10;;;;;;;14.19;63.08;100779.75;6387909;27;20225;-71
2021/05/19 00:07:31;;;;;;;5.82;2.22;;;;;;;14.16;62.99;100782.97;6389047;27;20480;-71
2021/05/19 00:10:35;;;;;;;3.30;2.10;;;;;;;14.06;63.13;100782.75;6389971;27;20216;-71
2021/05/19 00:13:40;;;;;;;2.13;2.00;;;;;;;14.04;63.39;100782.16;6389948;27;20213;-71
2021/05/19 00:16:46;;;;;;;8.25;2.00;;;;;;;14.09;63.87;100790.50;6390186;27;20181;-71
2021/05/19 00:19:49;;;;;;;2.08;2.08;;;;;;;13.98;64.51;100788.59;6389609;27;20188;-71
2021/05/19 00:22:53;;;;;;;2.20;2.10;;;;;;;13.93;64.56;100783.00;6389439;27;20244;-71
2021/05/19 00:25:58;;;;;;;2.33;2.13;;;;;;;13.97;64.39;100795.19;6388490;27;20381;-70
2021/05/19 00:29:03;;;;;;;2.10;2.10;;;;;;;13.82;64.44;100785.50;6388509;27;20469;-71
2021/05/19 00:32:07;;;;;;;1.88;1.88;;;;;;;13.74;64.75;100788.63;6388358;27;20186;-71
2021/05/19 00:35:11;;;;;;;2.30;2.30;;;;;;;13.76;64.49;100780.97;6389261;27;20185;-71
2021/05/19 00:38:18;;;;;;;2.58;2.10;;;;;;;13.63;64.48;100786.72;6388320;27;20487;-70
2021/05/19 00:41:22;;;;;;;2.42;2.33;;;;;;;13.65;64.56;100787.31;6389434;27;20288;-71
2021/05/19 00:44:26;;;;;;;2.40;2.40;;;;;;;13.64;64.73;100793.84;6389452;27;20188;-71
2021/05/19 00:47:33;;;;;;;2.20;2.10;;;;;;;13.73;64.44;100792.44;6371164;27;20272;-70
2021/05/19 00:50:38;;;;;;;2.30;2.10;;;;;;;13.63;65.08;100792.22;6389293;27;20222;-71
2021/05/19 00:53:43;;;;;;;2.13;1.90;;;;;;;13.61;65.27;100788.84;6389320;27;20213;-72
2021/05/19 00:56:47;;;;;;;2.10;2.00;;;;;;;13.51;65.47;100785.88;6389277;27;20182;-70
2021/05/19 00:59:52;;;;;;;2.00;2.00;;;;;;;13.68;64.92;100789.59;6387576;27;20344;-72
2021/05/19 01:03:05;;;;;;;2.38;2.05;;;;;;;13.62;65.04;100787.78;6338468;22;20596;-71
2021/05/19 01:06:17;;;;;;;2.13;2.00;;;;;;;13.46;65.71;100802.19;6287633;28;20183;-71
2021/05/19 01:09:35;;;;;;;2.40;2.00;;;;;;;13.10;66.79;100800.44;6286600;28;20377;-71
2021/05/19 01:12:40;;;;;;;2.00;1.90;;;;;;;13.24;66.41;100798.34;6286526;28;20188;-71
2021/05/19 01:15:44;;;;;;;1.90;1.90;;;;;;;13.13;66.95;100790.94;6287446;28;20188;-70
2021/05/19 01:18:49;;;;;;;2.42;2.20;;;;;;;13.11;66.99;100787.59;6287835;28;20184;-71
2021/05/19 01:21:55;;;;;;;2.13;2.03;;;;;;;13.00;67.05;100788.34;6286294;28;20398;-70
2021/05/19 01:25:00;;;;;;;2.33;2.20;;;;;;;13.09;67.01;100784.25;6286303;28;20238;-70
2021/05/19 01:28:07;;;;;;;1.90;1.90;;;;;;;13.12;66.98;100789.28;6285852;28;20386;-71
2021/05/19 01:31:12;;;;;;;1.83;1.83;;;;;;;13.11;67.14;100782.13;6285792;28;20204;-70
2021/05/19 01:34:16;;;;;;;2.65;2.03;;;;;;;13.04;67.25;100792.31;6284811;28;20204;-71
2021/05/19 01:37:20;;;;;;;4.43;2.33;;;;;;;12.82;67.80;100783.78;6285925;28;20200;-71
2021/05/19 01:40:29;;;;;;;2.40;2.30;;;;;;;12.85;68.15;100787.97;6285764;28;20219;-70
2021/05/19 01:43:36;;;;;;;2.03;2.03;;;;;;;12.75;68.89;100771.25;6285646;28;20229;-71
2021/05/19 01:46:52;;;;;;;2.22;2.03;;;;;;;12.53;69.49;100763.56;6285594;28;20200;-70
2021/05/19 01:49:56;;;;;;;3.35;2.17;;;;;;;12.65;69.99;100782.78;6286964;28;20184;-71
2021/05/19 01:53:01;;;;;;;2.78;2.17;;;;;;;12.71;69.79;100773.63;6287374;28;20194;-71
2021/05/19 01:56:06;;;;;;;2.30;2.30;;;;;;;12.62;70.13;100779.66;6285072;28;20200;-71
2021/05/19 01:59:13;;;;;;;2.00;2.00;;;;;;;12.51;70.58;100775.81;6285912;28;20191;-71
2021/05/19 02:02:22;;;;;;;2.30;2.30;;;;;;;12.67;70.06;100769.69;6285502;28;20242;-72
2021/05/19 02:05:29;;;;;;;5.68;2.30;;;;;;;12.50;70.90;100769.50;6286845;28;20196;-71
2021/05/19 02:08:35;;;;;;;2.45;2.35;;;;;;;12.73;69.96;100757.81;6284559;28;20241;-71
2021/05/19 02:11:41;;;;;;;6.78;2.72;;;;;;;12.77;69.47;100758.16;6284865;28;20235;-71
2021/05/19 02:14:44;;;;;;;3.25;2.92;;;;;;;12.72;69.94;100766.25;6284964;28;20271;-71
2021/05/19 02:17:48;;;;;;;2.65;2.45;;;;;;;12.54;70.44;100762.50;6287205;28;20184;-71
2021/05/19 02:20:52;;;;;;;2.30;2.10;;;;;;;12.48;70.68;100755.19;6284640;28;20251;-71
2021/05/19 02:23:59;;;;;;;6.75;1.90;;;;;;;12.41;70.83;100764.56;6285067;28;20379;-71
2021/05/19 02:27:04;;;;;;;2.35;2.25;;;;;;;12.34;71.50;100759.19;6285660;28;20184;-72
2021/05/19 02:30:13;;;;;;;2.15;2.05;;;;;;;12.21;71.74;100748.41;6285741;28;20200;-72
2021/05/19 02:33:20;;;;;;;2.30;2.20;;;;;;;12.38;71.12;100754.91;6286546;28;20220;-72
2021/05/19 02:36:26;;;;;;;2.13;2.00;;;;;;;12.33;71.41;100754.78;6285046;28;20563;-72
2021/05/19 02:39:30;;;;;;;7.88;2.10;;;;;;;12.35;71.43;100763.59;6286757;28;20195;-72
2021/05/19 02:42:37;;;;;;;3.70;2.30;;;;;;;12.28;71.94;100762.00;6285150;28;20233;-72
2021/05/19 02:45:41;;;;;;;2.40;2.20;;;;;;;12.36;71.41;100762.53;6286469;28;20184;-72
2021/05/19 02:48:45;;;;;;;2.40;2.20;;;;;;;12.51;70.83;100760.22;6290465;28;20487;-72
2021/05/19 02:51:48;;;;;;;2.15;2.05;;;;;;;12.41;71.10;100759.94;6289815;28;20501;-72
2021/05/19 02:54:52;;;;;;;2.20;2.00;;;;;;;12.46;71.03;100762.81;6289786;28;20251;-72
2021/05/19 02:57:57;;;;;;;8.98;2.30;;;;;;;12.65;69.99;100760.03;6289691;28;20451;-72
2021/05/19 03:01:00;;;;;;;2.30;1.90;;;;;;;12.56;70.31;100757.63;6288931;28;20227;-72
2021/05/19 03:04:04;;;;;;;2.17;2.17;;;;;;;12.52;70.94;100756.44;6289926;28;20526;-70
2021/05/19 03:07:11;;;;;;;1.80;1.80;;;;;;;12.38;71.10;100760.41;6289428;28;20236;-71
2021/05/19 03:10:15;;;;;;;2.03;2.03;;;;;;;12.44;70.63;100773.16;6290457;28;20226;-72
2021/05/19 03:13:20;;;;;;;2.08;2.08;;;;;;;12.33;71.04;100765.72;6290693;28;20234;-72
2021/05/19 03:16:26;;;;;;;7.72;1.88;;;;;;;12.39;70.91;100761.22;6290617;28;20230;-71
2021/05/19 03:19:30;;;;;;;1.80;1.80;;;;;;;12.44;70.68;100773.16;6290170;28;20197;-71
2021/05/19 03:22:34;;;;;;;2.10;2.10;;;;;;;12.46;70.67;100773.75;6288987;28;20208;-70
2021/05/19 03:25:37;;;;;;;2.00;2.00;;;;;;;12.37;70.89;100764.22;6290147;28;20258;-70
2021/05/19 03:28:42;;;;;;;2.42;2.10;;;;;;;12.33;70.68;100767.63;6290238;28;20247;-71
2021/05/19 03:31:47;;;;;;;2.05;1.90;;;;;;;12.38;70.61;100765.88;6290127;28;20188;-72
2021/05/19 03:34:50;;;;;;;1.60;1.60;;;;;;;12.43;71.06;100768.75;6288871;28;20379;-72
2021/05/19 03:37:54;;;;;;;3.15;1.92;;;;;;;12.47;70.96;100771.88;6288770;28;20545;-71
2021/05/19 03:40:58;;;;;;;2.17;2.17;;;;;;;12.47;71.05;100774.59;6289623;28;20254;-72
2021/05/19 03:44:03;;;;;;;3.08;2.13;;;;;;;12.51;70.83;100760.22;6288588;28;20471;-71
2021/05/19 03:47:07;;;;;;;2.10;2.10;;;;;;;12.55;70.84;100755.97;6288572;28;20467;-71
2021/05/19 03:50:11;;;;;;;2.65;1.92;;;;;;;12.56;71.11;100757.63;6289367;28;20184;-72
2021/05/19 03:53:16;;;;;;;2.35;2.30;;;;;;;12.45;70.88;100766.59;6289775;28;20233;-71
2021/05/19 03:56:20;;;;;;;1.98;1.98;;;;;;;12.51;71.16;100765.69;6289312;28;20271;-71
2021/05/19 03:59:24;;;;;;;2.40;2.20;;;;;;;12.55;71.14;100760.59;6288279;28;20185;-71
2021/05/19 04:02:28;;;;;;;2.33;2.17;;;;;;;12.52;71.43;100772.00;6288782;28;20303;-71
2021/05/19 04:05:35;;;;;;;5.05;2.28;;;;;;;12.66;71.04;100767.19;6288036;28;20377;-71
2021/05/19 04:08:40;;;;;;;4.13;1.80;;;;;;;12.70;70.53;100746.50;6289352;28;20184;-70
2021/05/19 04:11:44;;;;;;;2.25;2.15;;;;;;;12.81;70.15;100770.34;6287889;28;20211;-70
2021/05/19 04:14:49;;;;;;;2.00;1.90;;;;;;;12.79;70.55;100783.44;6289024;28;20184;-70
2021/05/19 04:17:53;;;;;;;2.08;1.98;;;;;;;12.83;70.63;100779.16;6288767;28;20268;-70
2021/05/19 04:20:56;;;;;;;5.35;2.45;;;;;;;12.84;70.67;100775.34;6287717;28;20481;-71
2021/05/19 04:24:01;;;;;;;7.78;2.20;;;;;;;12.80;70.95;100774.13;6287532;28;20274;-70
2021/05/19 04:27:05;;;;;;;2.80;2.63;;;;;;;12.87;71.18;100766.66;6288463;28;20495;-71
2021/05/19 04:30:11;;;;;;;6.40;2.17;;;;;;;12.96;71.10;100774.31;6288576;28;20184;-71
2021/05/19 04:33:16;;;;;;;7.90;2.00;;;;;;;12.97;70.94;100769.66;6288721;28;20199;-71
2021/05/19 04:36:19;;;;;;;2.20;2.20;;;;;;;13.02;70.73;100758.81;6286399;28;20207;-71
2021/05/19 04:39:23;;;;;;;2.95;2.00;;;;;;;12.99;70.73;100757.38;6287379;28;20220;-71
2021/05/19 04:42:27;;;;;;;6.53;2.22;;;;;;;12.95;71.09;100767.16;6287975;28;20219;-71
2021/05/19 04:45:32;;;;;;;2.28;2.05;;;;;;;12.84;71.14;100737.03;6288288;28;20281;-71
2021/05/19 04:48:36;;;;;;;3.47;2.00;;;;;;;12.96;71.24;100773.47;6287088;28;20528;-72
2021/05/19 04:51:39;;;;;;;3.17;1.85;;;;;;;13.01;71.38;100765.41;6285803;28;20199;-71
2021/05/19 04:54:43;;;;;;;1.90;1.85;;;;;;;13.04;71.13;100767.66;6287860;28;20192;-70
2021/05/19 04:57:47;;;;;;;4.28;2.25;;;;;;;13.12;70.86;100775.59;6287219;28;20184;-71
2021/05/19 05:00:52;;;;;;;2.17;2.00;;;;;;;13.05;71.14;100772.06;6287497;28;20216;-71
2021/05/19 05:03:56;;;;;;;2.42;2.33;;;;;;;12.98;71.55;100760.38;6286951;28;20254;-71
2021/05/19 05:07:01;;;;;;;2.00;1.90;;;;;;;13.09;71.02;100754.13;6286654;28;20190;-71
2021/05/19 05:10:06;;;;;;;2.08;1.80;;;;;;;13.12;70.78;100745.44;6286407;28;20480;-71
2021/05/19 05:13:11;;;;;;;2.00;2.00;;;;;;;13.26;70.45;100746.88;6287357;28;20218;-71
2021/05/19 05:16:15;;;;;;;1.75;1.65;;;;;;;12.79;70.35;100680.22;6286726;28;20252;-71
2021/05/19 05:19:20;;;;;;;1.80;1.70;;;;;;;13.32;70.54;100751.44;6286349;28;20184;-71
2021/05/19 05:22:24;;;;;;;4.88;1.65;;;;;;;13.38;70.04;100744.97;6287347;28;20216;-71
2021/05/19 05:25:30;;;;;;;2.42;2.10;;;;;;;13.56;69.67;100741.28;6287016;28;20261;-71
2021/05/19 05:28:34;;;;;;;1.88;1.85;;;;;;;13.59;69.47;100752.63;6286096;28;20184;-71
2021/05/19 05:31:38;;;;;;;1.95;1.80;;;;;;;13.60;69.69;100748.81;6286016;28;20184;-71
2021/05/19 05:34:42;;;;;;;1.77;1.77;;;;;;;13.52;70.05;100751.91;6285911;28;20438;-71
2021/05/19 05:37:46;;;;;;;2.25;2.00;;;;;;;13.50;70.17;100734.88;6286621;28;20189;-70
2021/05/19 05:40:49;;;;;;;2.30;2.10;;;;;;;13.72;69.59;100752.38;6285857;28;20456;-71
2021/05/19 05:43:53;;;;;;;4.88;2.00;;;;;;;13.86;68.87;100757.63;6286067;28;20275;-71
2021/05/19 05:46:58;;;;;;;4.25;1.75;;;;;;;13.97;68.46;100748.53;6287032;28;20184;-71
2021/05/19 05:50:03;;;;;;;2.78;1.80;;;;;;;14.07;68.12;100748.75;6286961;28;20255;-72
2021/05/19 05:53:07;;;;;;;8.48;2.20;;;;;;;14.10;68.08;100753.75;6287113;28;20194;-71
2021/05/19 05:56:11;;;;;;;3.15;1.77;;;;;;;14.01;68.35;100752.47;6285437;28;20475;-71
2021/05/19 05:59:18;;;;;;;8.15;2.00;;;;;;;14.19;67.79;100741.31;6286884;28;20184;-71
2021/05/19 06:02:22;;;;;;;4.65;2.00;;;;;;;14.17;67.80;100746.22;6286763;28;20266;-72
2021/05/19 06:05:26;;;;;;;7.05;2.00;;;;;;;14.35;67.36;100751.56;6286898;28;20252;-72
2021/05/19 06:08:30;;;;;;;5.70;1.95;;;;;;;14.46;66.98;100753.44;6287021;28;20184;-71
2021/05/19 06:11:34;;;;;;;4.75;2.05;;;;;;;14.57;66.36;100738.84;6286822;28;20184;-71
2021/05/19 06:14:38;;;;;;;5.97;2.08;;;;;;;14.74;65.68;100739.69;6286513;28;20211;-72
2021/05/19 06:17:42;;;;;;;8.80;1.80;;;;;;;14.72;65.48;100744.59;6286636;28;20199;-72
2021/05/19 06:20:47;;;;;;;6.78;2.08;;;;;;;14.82;65.60;100747.53;6285694;28;20467;-70
2021/05/19 06:23:50;;;;;;;2.65;1.85;;;;;;;14.98;64.23;100748.66;6291051;28;20265;-72
2021/05/19 06:26:54;;;;;;;3.33;1.80;;;;;;;14.99;63.95;100742.91;6291213;28;20184;-72
2021/05/19 06:29:58;;;;;;;7.43;2.00;;;;;;;15.08;63.67;100740.59;6291469;28;20216;-71
2021/05/19 06:33:02;;;;;;;5.38;2.00;;;;;;;15.17;63.33;100739.09;6291199;28;20189;-71
2021/05/19 06:36:07;;;;;;;8.38;2.10;;;;;;;15.30;63.82;100738.78;6291132;28;20191;-71
2021/05/19 06:39:11;;;;;;;5.35;1.50;;;;;;;15.42;63.29;100735.91;6290584;28;20256;-72
2021/05/19 06:42:16;;;;;;;1.90;1.70;;;;;;;15.40;62.90;100743.59;6289931;28;20184;-71
2021/05/19 06:45:19;;;;;;;4.63;1.80;;;;;;;15.47;63.35;100733.28;6290474;28;20184;-71
2021/05/19 06:48:24;;;;;;;3.90;1.90;;;;;;;15.53;62.89;100738.63;6290221;28;20224;-70
2021/05/19 06:51:28;;;;;;;1.98;1.60;;;;;;;15.64;62.55;100750.59;6289924;28;20224;-71
2021/05/19 06:54:31;;;;;;;6.57;1.90;;;;;;;15.72;61.67;100752.91;6289424;28;20219;-71
2021/05/19 06:57:36;;;;;;;8.32;1.83;;;;;;;15.67;62.18;100750.09;6290086;28;20184;-71
2021/05/19 07:00:40;;;;;;;2.33;2.05;;;;;;;15.68;62.09;100757.25;6289261;28;20188;-71
2021/05/19 07:03:44;;;;;;;9.13;2.13;;;;;;;15.75;61.39;100752.41;6290062;28;20269;-71
2021/05/19 07:06:50;;;;;;;3.03;1.60;;;;;;;15.43;61.85;100737.59;6290323;28;20188;-71
2021/05/19 07:09:53;;;;;;;1.83;1.80;;;;;;;15.67;61.53;100755.59;6290545;28;20184;-72
2021/05/19 07:12:57;;;;;;;1.70;1.60;;;;;;;15.90;60.58;100760.88;6290037;28;20188;-71
2021/05/19 07:16:02;;;;;;;2.63;1.83;;;;;;;16.00;60.63;100755.50;6288406;28;20271;-71
2021/05/19 07:19:07;;;;;;;5.40;2.00;;;;;;;16.03;60.95;100762.41;6289011;28;20207;-71
2021/05/19 07:22:12;;;;;;;4.07;1.95;;;;;;;16.14;60.47;100751.31;6289575;28;20249;-72
2021/05/19 07:25:16;;;;;;;5.22;1.65;;;;;;;16.01;59.55;100759.09;6288157;28;20366;-72
2021/05/19 07:28:20;;;;;;;1.63;1.60;;;;;;;16.10;59.42;100760.34;6289711;28;20191;-71
2021/05/19 07:31:24;;;;;;;8.45;1.90;;;;;;;16.21;59.28;100754.69;6288839;28;20223;-72
2021/05/19 07:34:29;;;;;;;4.30;1.48;;;;;;;16.32;58.44;100752.06;6289265;28;20188;-71
2021/05/19 07:37:32;;;;;;;3.13;1.60;;;;;;;16.40;58.50;100759.88;6288783;28;20237;-71
2021/05/19 07:40:37;;;;;;;1.80;1.63;;;;;;;16.46;57.80;100753.34;6289268;28;20184;-72
2021/05/19 07:43:41;;;;;;;1.90;1.30;;;;;;;16.40;57.72;100754.38;6288380;28;20208;-72
2021/05/19 07:46:44;;;;;;;;;;;;;;;16.49;56.81;100753.66;6288683;28;20479;-71
2021/05/19 07:49:48;;;;;;;3.33;1.50;;;;;;;16.53;56.98;100756.75;6288477;28;20215;-71
2021/05/19 07:52:50;;;;;;;1.27;1.27;;;;;;;16.64;56.51;100756.59;6288441;28;20443;-72
2021/05/19 07:55:58;;;;;;;1.30;1.30;;;;;;;16.57;57.34;100763.41;6288627;28;20045;-72
2021/05/19 07:59:04;;;;;;;1.50;1.50;;;;;;;16.67;56.78;100761.59;6289452;28;20226;-72
2021/05/19 08:02:08;;;;;;;3.53;1.33;;;;;;;16.82;58.33;100758.19;6288400;28;20263;-72
2021/05/19 08:05:13;;;;;;;1.65;1.55;;;;;;;16.78;58.45;100759.78;6289037;28;20106;-71
2021/05/19 08:08:19;;;;;;;2.20;2.10;;;;;;;16.73;57.16;100754.22;6289257;28;20185;-71
2021/05/19 08:11:21;;;;;;;3.47;1.80;;;;;;;16.85;57.00;100752.16;6288552;28;20257;-71
2021/05/19 08:14:26;;;;;;;3.55;1.60;;;;;;;16.87;56.65;100750.00;6288016;28;20211;-72
2021/05/19 08:17:29;;;;;;;2.03;1.77;;;;;;;16.89;56.86;100747.78;6287580;28;20383;-72
2021/05/19 08:20:36;;;;;;;3.90;1.98;;;;;;;16.64;57.51;100751.09;6287411;28;20380;-72
2021/05/19 08:23:40;;;;;;;1.50;1.50;;;;;;;16.63;57.23;100743.09;6287436;28;20523;-71
2021/05/19 08:26:44;;;;;;;1.80;1.70;;;;;;;16.71;58.13;100739.91;6288447;28;20191;-72
2021/05/19 08:29:48;;;;;;;3.70;1.50;;;;;;;16.76;57.60;100737.19;6288349;28;20263;-71
2021/05/19 08:32:52;;;;;;;5.35;1.75;;;;;;;16.68;57.45;100730.22;6288211;28;20187;-72
2021/05/19 08:35:56;;;;;;;10.02;1.95;;;;;;;16.79;57.52;100739.44;6288281;28;20222;-71
2021/05/19 08:39:00;;;;;;;5.35;1.83;;;;;;;16.68;57.76;100745.91;6288384;28;20185;-70
2021/05/19 08:42:05;;;;;;;2.97;1.60;;;;;;;16.79;57.83;100737.47;6288243;28;20260;-71
2021/05/19 08:45:11;;;;;;;5.60;2.03;;;;;;;16.88;56.96;100729.59;6287332;28;20259;-72
2021/05/19 08:48:15;;;;;;;3.75;1.75;;;;;;;16.88;57.15;100740.59;6288171;28;20185;-71
2021/05/19 08:51:19;;;;;;;4.63;1.70;;;;;;;16.89;57.53;100742.28;6288077;28;20223;-72
2021/05/19 08:54:24;;;;;;;1.40;1.40;;;;;;;16.98;57.27;100739.88;6286783;28;20188;-72
2021/05/19 08:57:28;;;;;;;1.40;1.40;;;;;;;16.99;57.29;100731.34;6287830;28;20222;-72
2021/05/19 09:00:34;;;;;;;4.20;1.60;;;;;;;17.07;56.38;100730.03;6286681;28;20445;-72
2021/05/19 09:03:38;;;;;;;2.13;1.33;;;;;;;16.89;56.64;100731.25;6287233;28;20298;-72
2021/05/19 09:06:44;;;;;;;1.52;1.42;;;;;;;17.00;56.08;100733.00;6286499;28;20265;-72
2021/05/19 09:09:47;;;;;;;3.83;1.63;;;;;;;16.97;56.52;100738.22;6285304;28;20337;-73
2021/05/19 09:12:51;;;;;;;1.52;1.33;;;;;;;16.73;55.82;100721.19;6286969;28;20256;-71
2021/05/19 09:15:54;;;;;;;4.43;1.60;;;;;;;16.91;56.40;100726.31;6284671;28;20235;-72
2021/05/19 09:18:59;;;;;;;1.88;1.50;;;;;;;16.99;55.56;100725.84;6286304;28;20230;-71
2021/05/19 09:22:04;;;;;;;7.00;2.20;;;;;;;17.10;54.78;100727.56;6286407;28;20191;-73
2021/05/19 09:25:19;;;;;;;2.08;1.75;;;;;;;17.08;55.17;100724.25;6285000;28;20250;-72
2021/05/19 09:28:23;;;;;;;;;;;;;;;17.08;55.04;100729.78;6286274;28;20195;-73
2021/05/19 09:31:26;;;;;;;;;;;;;;;17.09;51.98;100731.44;6284889;28;20231;-72
2021/05/19 09:34:30;;;;;;;;;;;;;;;17.09;51.32;100725.94;6285620;28;20060;-71
2021/05/19 09:37:35;;;;;;;;;;;;;;;17.13;51.23;100720.75;6285450;28;20535;-71
2021/05/19 09:40:39;;;;;;;;;;;;;;;17.05;50.69;100716.50;6286005;28;19954;-72
2021/05/19 09:43:42;;;;;;;;;;;;;;;17.10;48.81;100727.56;6284277;28;19924;-72
2021/05/19 09:46:46;;;;;;;;;;;;;;;16.80;49.61;100655.66;6285096;28;20108;-71
2021/05/19 09:49:55;;;;;;;;;;;;;;;17.27;50.04;100721.94;6285700;28;20000;-71
2021/05/19 09:53:03;;;;;;;;;;;;;;;17.33;50.85;100721.69;6286238;28;20009;-72
2021/05/19 09:56:08;;;;;;;;;;;;;;;17.48;50.93;100730.13;6285574;28;20112;-72
2021/05/19 09:59:19;;;;;;;;;;;;;;;17.50;51.16;100721.56;6290794;28;19916;-72
2021/05/19 10:02:27;;;;;;;1.27;1.27;;;;;;;17.41;50.47;100707.44;6267740;28;631032;-73
2021/05/19 10:05:34;;;;;;;;;;;;;;;17.47;50.00;100711.91;6291759;28;19963;-73
2021/05/19 10:08:38;;;;;;;;;;;;;;;17.51;50.82;100707.50;6291987;28;19920;-72
2021/05/19 10:11:43;;;;;;;;;;;;;;;17.56;48.42;100714.19;6290721;28;20173;-71
2021/05/19 10:14:47;;;;;;;4.05;1.10;;;;;;;17.38;48.28;100702.44;6291576;28;20005;-72
2021/05/19 10:17:56;;;;;;;2.20;1.08;;;;;;;17.33;47.99;100715.38;6290557;28;20259;-72
2021/05/19 10:21:01;;;;;;;2.17;1.10;;;;;;;17.55;48.71;100715.28;6288799;28;20200;-72
2021/05/19 10:24:09;;;;;;;1.33;0.88;;;;;;;17.68;48.20;100706.53;6291409;28;20219;-73
2021/05/19 10:27:15;;;;;;;2.50;1.00;;;;;;;17.78;49.64;100703.84;6291511;28;20252;-73
2021/05/19 10:30:37;;;;;;;3.22;0.98;;;;;;;17.75;46.26;100707.13;6290820;28;20169;-72
2021/05/19 10:33:46;;;;;;;1.13;1.10;;;;;;;17.83;48.65;100695.59;6290443;28;20184;-72
2021/05/19 10:36:52;;;;;;;;;;;;;;;17.94;48.10;100697.31;6290325;28;20503;-72
2021/05/19 10:40:12;;;;;;;;;;;;;;;17.98;47.64;100706.69;6290334;28;20209;-73
2021/05/19 10:43:17;;;;;;;;;;;;;;;18.08;47.87;100707.56;6290748;28;20168;-73
2021/05/19 10:46:48;;;;;;;3.95;1.20;;;;;;;18.19;45.27;100708.44;6291520;28;19996;-73
2021/05/19 10:50:01;;;;;;;;;;;;;;;18.28;45.50;100712.38;6291626;28;19916;-72
2021/05/19 11:00:21;;;;;;;1.33;1.33;;;;;;;18.71;45.88;100703.69;6289326;28;20475;-73
2021/05/19 11:03:25;;;;;;;1.20;1.20;;;;;;;18.77;45.67;100709.22;6290312;28;20224;-72
2021/05/19 11:06:28;;;;;;;1.95;1.20;;;;;;;18.81;44.48;100705.63;6290302;28;20239;-73
2021/05/19 11:09:33;;;;;;;2.95;1.13;;;;;;;18.84;44.83;100695.94;6290345;28;20237;-72
2021/05/19 11:12:46;;;;;;;1.15;1.15;;;;;;;18.95;44.86;100689.34;6289988;28;20247;-72
2021/05/19 11:19:26;;;;;;;4.20;1.00;;;;;;;18.90;44.96;100692.09;6289051;28;20204;-72
2021/05/19 11:22:29;;;;;;;6.88;1.50;;;;;;;18.81;44.71;100702.00;6289484;28;20184;-72
2021/05/19 11:25:33;;;;;;;1.33;1.30;;;;;;;18.95;45.00;100692.91;6288848;28;20384;-71
2021/05/19 11:28:38;;;;;;;2.53;1.30;;;;;;;18.95;45.59;100700.38;6289707;28;20184;-72
2021/05/19 11:31:47;;;;;;;1.10;1.10;;;;;;;18.80;45.01;100694.84;6289570;28;20191;-72
2021/05/19 11:34:52;;;;;;;1.58;1.48;;;;;;;18.61;44.72;100689.84;6288482;28;20371;-73
2021/05/19 11:38:17;;;;;;;1.25;1.20;;;;;;;18.77;45.04;100688.75;6290135;28;20261;-72
2021/05/19 11:41:35;;;;;;;3.10;1.30;;;;;;;18.82;45.19;100696.22;6288239;28;20200;-72
2021/05/19 11:44:55;;;;;;;1.45;1.27;;;;;;;18.58;44.84;100690.38;6288619;28;20208;-72
2021/05/19 11:48:00;;;;;;;1.73;1.27;;;;;;;18.67;45.41;100696.19;6288641;28;20381;-72
2021/05/19 11:51:17;;;;;;;7.47;1.30;;;;;;;18.85;44.58;100667.22;6288434;28;20359;-71
2021/05/19 11:54:40;;;;;;;3.88;1.27;;;;;;;19.12;43.81;100696.25;6288246;28;20382;-72
2021/05/19 11:57:44;;;;;;;3.13;1.50;;;;;;;18.60;43.85;100599.75;6289236;28;20184;-71
2021/05/19 12:00:53;;;;;;;6.95;1.40;;;;;;;19.42;43.96;100689.03;6288061;28;20184;-72
2021/05/19 12:03:58;;;;;;;13.50;2.00;;;;;;;19.48;44.53;100680.47;6289256;28;20239;-72
2021/05/19 12:07:05;;;;;;;10.43;1.80;;;;;;;19.67;44.33;100700.09;6289455;28;20212;-72
2021/05/19 12:10:12;;;;;;;9.07;1.38;;;;;;;19.71;43.32;100693.72;6288231;28;20185;-72
2021/05/19 12:13:26;;;;;;;3.08;1.50;;;;;;;19.57;43.51;100686.28;6289167;28;20188;-71
2021/05/19 12:16:31;;;;;;;1.20;1.20;;;;;;;19.67;43.60;100689.81;6289017;28;20220;-72
2021/05/19 12:19:37;;;;;;;9.77;1.42;;;;;;;19.80;43.88;100694.78;6288207;28;20191;-71
2021/05/19 12:22:41;;;;;;;7.50;1.83;;;;;;;19.89;42.27;100698.63;6287874;28;20192;-72
2021/05/19 12:25:46;;;;;;;1.60;1.60;;;;;;;20.02;42.12;100693.59;6288448;28;20246;-72
2021/05/19 12:28:49;;;;;;;2.35;1.20;;;;;;;20.05;42.02;100687.50;6288324;28;20184;-71
2021/05/19 12:32:06;;;;;;;1.42;1.20;;;;;;;20.02;43.09;100691.69;6288400;28;20184;-71
2021/05/19 12:35:16;;;;;;;3.30;1.33;;;;;;;20.02;42.05;100688.06;6288592;28;20188;-71
2021/05/19 12:38:46;;;;;;;1.80;1.33;;;;;;;20.13;42.04;100678.63;6287367;28;20199;-72
2021/05/19 12:42:18;;;;;;;1.10;1.10;;;;;;;20.22;41.88;100687.97;6286955;28;20207;-73
2021/05/19 12:45:26;;;;;;;4.07;1.38;;;;;;;20.45;41.73;100692.88;6286607;28;20239;-71
2021/05/19 12:48:48;;;;;;;1.15;1.15;;;;;;;20.53;41.76;100697.81;6285668;28;20181;-71
2021/05/19 12:52:20;;;;;;;1.05;1.05;;;;;;;20.54;42.50;100680.91;6287294;28;20310;-71
2021/05/19 12:55:59;;;;;;;1.27;1.20;;;;;;;20.55;41.60;100693.66;6286250;28;20246;-71
2021/05/19 12:59:26;;;;;;;3.80;1.30;;;;;;;20.44;40.17;100680.97;6271318;28;20389;-71
2021/05/19 13:02:46;;;;;;;6.28;1.95;;;;;;;20.62;41.96;100685.00;6286746;28;20286;-71
2021/05/19 13:06:10;;;;;;;1.20;1.20;;;;;;;20.38;41.63;100695.16;6287129;28;20251;-71
2021/05/19 13:09:30;;;;;;;4.43;1.42;;;;;;;20.11;41.96;100703.00;6286435;28;20184;-72
2021/05/19 13:13:13;;;;;;;1.50;1.50;;;;;;;19.80;45.79;100702.25;6286649;28;20263;-72
2021/05/19 13:16:47;;;;;;;1.50;1.50;;;;;;;19.76;46.62;100702.00;6286660;28;20196;-72
2021/05/19 13:20:20;;;;;;;1.45;1.42;;;;;;;19.55;47.08;100705.06;6287191;28;20233;-72
2021/05/19 13:23:55;;;;;;;2.45;1.30;;;;;;;19.35;47.67;100705.91;6286802;28;20196;-71
2021/05/19 13:27:27;;;;;;;1.30;1.27;;;;;;;19.44;47.18;100693.19;6286418;28;20231;-71
2021/05/19 13:30:31;;;;;;;3.22;1.55;;;;;;;19.34;47.43;100693.16;6287368;28;20207;-71
2021/05/19 13:33:54;;;;;;;1.30;1.30;;;;;;;19.50;46.26;100691.25;6287534;28;20184;-71
2021/05/19 13:37:18;;;;;;;1.35;1.35;;;;;;;19.40;45.19;100697.63;6286357;28;20211;-72
2021/05/19 13:40:25;;;;;;;1.17;1.17;;;;;;;19.70;43.19;100694.81;6287342;28;20185;-71
2021/05/19 13:43:38;;;;;;;2.75;1.20;;;;;;;20.04;42.91;100691.38;6287140;28;20191;-71
2021/05/19 13:47:15;;;;;;;1.30;1.30;;;;;;;20.35;43.35;100695.72;6286071;28;20212;-71
2021/05/19 13:51:01;;;;;;;1.80;1.58;;;;;;;19.90;42.73;100703.06;6286193;28;20263;-71
2021/05/19 13:54:25;;;;;;;1.10;1.10;;;;;;;19.81;43.84;100715.81;6286789;28;20180;-72
2021/05/19 13:57:53;;;;;;;1.30;1.30;;;;;;;19.66;44.31;100720.56;6286033;28;20188;-71
2021/05/19 14:01:07;;;;;;;1.55;1.55;;;;;;;19.31;44.96;100724.19;6286760;28;20200;-72
2021/05/19 14:04:40;;;;;;;2.33;1.80;;;;;;;19.20;46.00;100730.81;6285629;28;20228;-71
2021/05/19 14:08:04;;;;;;;1.42;1.42;;;;;;;18.93;44.87;100735.75;6284991;28;20248;-71
2021/05/19 14:11:49;;;;;;;3.20;1.52;;;;;;;18.58;45.18;100729.06;6359199;27;20685;-71
2021/05/19 14:15:25;;;;;;;1.50;1.40;;;;;;;18.63;44.85;100734.59;6357705;28;20209;-72
2021/05/19 14:19:05;;;;;;;2.30;1.60;;;;;;;18.41;45.95;100733.13;6359010;28;20203;-72
2021/05/19 14:29:14;;;;;;;4.97;1.33;;;;;;;18.63;45.98;100726.31;6357277;28;20241;-71
2021/05/19 14:32:21;;;;;;;1.35;1.35;;;;;;;18.80;45.83;100730.78;6358704;28;20190;-71
2021/05/19 14:35:47;;;;;;;1.50;1.50;;;;;;;18.93;45.74;100724.69;6358310;28;20213;-72
2021/05/19 15:00:13;;;;;;;1.42;1.42;;;;;;;19.88;42.11;100705.28;6356866;28;20506;-71
2021/05/19 15:03:30;;;;;;;1.45;1.45;;;;;;;19.74;42.70;100703.38;6356472;28;20204;-72
2021/05/19 15:06:49;;;;;;;2.50;1.60;;;;;;;19.47;44.07;100673.28;6356405;28;20379;-71
2021/05/19 15:09:58;;;;;;;1.42;1.42;;;;;;;19.68;43.52;100705.34;6357249;28;20233;-71
2021/05/19 15:13:05;;;;;;;1.40;1.40;;;;;;;19.66;42.96;100699.25;6357178;28;20220;-71
2021/05/19 15:16:09;;;;;;;4.22;1.65;;;;;;;19.54;42.78;100706.19;6357263;28;20338;-71
2021/05/19 15:19:35;;;;;;;1.52;1.42;;;;;;;19.61;43.40;100709.50;6356106;28;20202;-71